EPRZ/RZE METAR and TAF weather

Enter ICAO airport designator
Station Type Date Time Source
EPRZ METAR 2018/12/13 15:30 UTC NOAA

EPRZ 131530Z 29006KT 6000 -SN BKN005 OVC014 00/M01 Q1020


Station Type Date Time Source
EPRZ Decoded METAR 2018/12/13 15:30 UTC NOAA

Rzeszow-Jasionka, Poland (EPRZ) 50-06N 022-03E 202M
Dec 13, 2018 - 10:30 AM EST / 2018.12.13 1530 UTC
Wind: from the WNW (290 degrees) at 7 MPH (6 KT):0
Visibility: 3 mile(s):0
Sky conditions: overcast
Weather: light snow
Temperature: 32 F (0 C)
Windchill: 24 F (-4 C):1
Dew Point: 30 F (-1 C)
Relative Humidity: 92%
Pressure (altimeter): 30.12 in. Hg (1020 hPa)
ob: EPRZ 131530Z 29006KT 6000 -SN BKN005 OVC014 00/M01 Q1020
cycle: 15

Station Type Date Time Source
EPRZ TAF 2018/12/13 12:37 UTC NOAA

TAF EPRZ 131130Z 1312/1412 33006KT 5000 BR BKN006 OVC015
TEMPO 1312/1412 1200 -SN BR BKN004 OVC008


Example: see airport list